This is the latest recevied weather packets stored in our database for station/object KJ5BMY-13. If no packets are shown the sender has not sent any weather packets the latest 1 day(s).
| Time | Temp. | Humidity | Pressure | Rain* | Wind** | Luminosity | Snow |
|---|---|---|---|---|---|---|---|
| 1778096266 | 15.56° C | 78% | 1016.9 hPa | 0 mm | - | - | - |
| 1778094446 | 14.44° C | 80% | 1016.9 hPa | 0 mm | - | - | - |
| 1778092323 | 15.56° C | 79% | 1015.8 hPa | 0 mm | - | - | - |
| 1778088688 | 13.33° C | 86% | 1016.7 hPa | 0 mm | - | - | - |
| 1778087477 | 13.33° C | 85% | 1016.6 hPa | 0 mm | - | - | - |
| 1778086871 | 13.33° C | 85% | 1016.1 hPa | 0 mm | - | - | - |
| 1778085660 | 13.33° C | 85% | 1016.6 hPa | 0 mm | - | - | - |
| 1778085355 | 13.89° C | 84% | 1016.7 hPa | 0 mm | - | - | - |
| 1778077893 | 12.78° C | 80% | 1016.9 hPa | 0 mm | - | - | - |
| 1778077289 | 12.78° C | 81% | 1016.3 hPa | 0 mm | - | - | - |
| 1778074562 | 12.22° C | 84% | 1016 hPa | 0 mm | - | - | - |
| 1778073653 | 12.22° C | 84% | 1015.5 hPa | 0 mm | - | - | - |
| 1778072139 | 12.22° C | 83% | 1015.4 hPa | 0 mm | - | - | - |
| 1778070022 | 12.78° C | 81% | 1015 hPa | 0 mm | - | - | - |
| 1778066693 | 13.33° C | 77% | 1014 hPa | 0 mm | - | - | - |
| 1778066390 | 13.33° C | 77% | 1014.1 hPa | 0 mm | - | - | - |
| 1778065785 | 13.33° C | 76% | 1013.8 hPa | 0 mm | - | - | - |
| 1778064573 | 13.89° C | 75% | 1013.5 hPa | 0 mm | - | - | - |
| 1778064271 | 13.89° C | 75% | 1013.5 hPa | 0 mm | - | - | - |
| 1778063666 | 13.89° C | 74% | 1013.3 hPa | 0 mm | - | - | - |
| 1778063363 | 13.89° C | 74% | 1013.1 hPa | 0 mm | - | - | - |
| 1778063061 | 14.44° C | 74% | 1012.9 hPa | 0 mm | - | - | - |
| 1778062758 | 14.44° C | 74% | 1012.9 hPa | 0 mm | - | - | - |
| 1778062454 | 14.44° C | 73% | 1012.9 hPa | 0 mm | - | - | - |
| 1778061850 | 14.44° C | 74% | 1012.6 hPa | 0 mm | - | - | - |
* Rain latest hour (hover to see other rain measurements)
** Current wind speed in m/s (hover to see current wind gust speed)